- বাংলা English

 * * Phone: +880 29135742, 9123838, 9141437 | FAX: +880 2 8118230, 58152019*   

TAF

TAF VGHS 181700Z 1818/1924 30004KT 2500 BR NSC
  BECMG 1822/1824 00000KT 1500 BR SCT007
  BECMG 1900/1902 00000KT 0800 FG BKN007
  TEMPO 1823/1902 00000KT 0400 FG BKN005
  BECMG 1902/1904 00000KT 1200 BR SCT007
  BECMG 1904/1906 30006KT 2000 BR NSC
  BECMG 1904/1908 34006KT 2500 HZ FEW016
  BECMG 1908/1910 30005KT 3200 HZ NSC
  BECMG 1918/1920 35004KT 2500 BR NSC
  BECMG 1922/1924 00000KT 1200 BR SCT007=

TAF VGEG 181100Z 1812/1918 24006KT 3500 HZ NSC
  BECMG 1819/1821 00000KT 2000 SCT015
  TEMPO 1822/1902 00000KT 0800 FG BKN008
  BECMG 1903/1905 03010KT 3500 HZ NSC
  BECMG 1912/1914 34005KT 3000 HZ NSC=

TAF VGSY 181000Z 1812/1918 15005KT 4000HZ NSC
  BECMG 1818/1820 06004KT 3000HZ/BR SCT015 BECMG
  1823/1901 00000KT 1200BR SCT012 BECMG 1901/1903
  00000KT 2500BR NSC BECMG 1903/1905 09005KT 3500HZ
  FEW015  BECMG 1908/1910 16005KT 4000HZ FEW018=